Time;durP1;ratioP1;P1;durP2;ratioP2;P2;SDS_P1;SDS_P2;PMS_P1;PMS_P2;Temp;Humidity;BMP_temperature;BMP_pressure;BME280_temperature;BME280_humidity;BME280_pressure;Samples;Min_cycle;Max_cycle;Signal;HPM_P1;HPM_P2
2024/04/01 00:01:52;;;;;;;13.93;4.77;;;12.00;99.90;;;;;;5015636;28;20828;-73
2024/04/01 00:04:39;;;;;;;15.33;4.40;;;12.00;99.90;;;;;;5014445;28;21048;-74
2024/04/01 00:07:23;;;;;;;9.73;3.93;;;11.90;99.90;;;;;;5016857;28;20461;-74
2024/04/01 00:10:09;;;;;;;8.53;3.43;;;12.00;99.90;;;;;;5013784;28;20451;-74
2024/04/01 00:12:53;;;;;;;6.70;3.23;;;11.90;99.90;;;;;;5016229;28;20557;-73
2024/04/01 00:15:40;;;;;;;14.80;3.57;;;12.00;99.90;;;;;;5015376;28;20431;-73
2024/04/01 00:18:25;;;;;;;24.20;4.23;;;12.00;99.90;;;;;;5015373;28;20517;-73
2024/04/01 00:21:12;;;;;;;12.40;4.07;;;12.10;99.90;;;;;;5017405;28;20468;-74
2024/04/01 00:23:57;;;;;;;13.53;3.87;;;12.00;99.90;;;;;;5020792;28;21003;-74
2024/04/01 00:26:44;;;;;;;10.60;4.50;;;12.10;99.90;;;;;;5011514;28;20458;-73
2024/04/01 00:29:29;;;;;;;8.87;4.50;;;12.10;99.90;;;;;;5016479;28;20455;-73
2024/04/01 00:32:14;;;;;;;13.70;4.73;;;12.10;99.90;;;;;;5014188;28;20467;-73
2024/04/01 00:35:00;;;;;;;10.93;4.83;;;11.90;99.90;;;;;;5015293;28;20464;-74
2024/04/01 00:37:46;;;;;;;6.27;4.33;;;12.00;99.90;;;;;;5016164;28;20453;-74
2024/04/01 00:40:34;;;;;;;11.20;3.63;;;12.00;99.90;;;;;;5014109;28;20594;-73
2024/04/01 00:43:19;;;;;;;13.20;4.60;;;11.90;99.90;;;;;;5013059;28;21041;-73
2024/04/01 00:46:05;;;;;;;7.70;3.97;;;11.80;99.90;;;;;;5014870;28;20455;-73
2024/04/01 00:48:51;;;;;;;8.70;3.77;;;11.90;99.90;;;;;;5017769;28;20448;-73
2024/04/01 00:51:37;;;;;;;8.20;3.80;;;11.90;99.90;;;;;;5014370;28;20446;-74
2024/04/01 00:54:23;;;;;;;8.43;3.77;;;11.90;99.90;;;;;;5019115;28;20465;-73
2024/04/01 00:57:09;;;;;;;15.67;4.30;;;11.80;99.90;;;;;;5017418;28;20452;-74
2024/04/01 00:59:54;;;;;;;12.53;4.23;;;11.90;99.90;;;;;;5018586;28;20448;-73
2024/04/01 01:02:40;;;;;;;8.03;3.97;;;11.90;99.90;;;;;;5010304;28;20454;-73
2024/04/01 01:05:26;;;;;;;11.50;3.63;;;11.90;99.90;;;;;;5016178;28;20441;-73
2024/04/01 01:08:12;;;;;;;9.30;3.90;;;11.80;99.90;;;;;;5015447;28;21006;-73
2024/04/01 01:10:58;;;;;;;12.20;4.50;;;11.90;99.90;;;;;;5019198;28;20941;-74
2024/04/01 01:13:44;;;;;;;7.50;4.70;;;11.90;99.90;;;;;;5015432;28;20448;-73
2024/04/01 01:16:28;;;;;;;12.43;3.40;;;12.10;99.90;;;;;;5016808;28;20434;-73
2024/04/01 01:19:15;;;;;;;14.00;4.40;;;12.00;99.90;;;;;;5014975;28;20452;-74
2024/04/01 01:22:05;;;;;;;6.50;3.57;;;12.00;99.90;;;;;;5016382;28;20471;-71
2024/04/01 01:24:52;;;;;;;10.90;4.50;;;12.00;99.90;;;;;;5017481;28;20456;-70
2024/04/01 01:27:37;;;;;;;16.03;3.60;;;12.10;99.90;;;;;;5020162;28;20793;-71
2024/04/01 01:30:23;;;;;;;6.97;4.10;;;12.10;99.90;;;;;;5020357;28;20515;-73
2024/04/01 01:33:09;;;;;;;8.40;3.90;;;12.20;99.90;;;;;;5017920;28;20476;-73
2024/04/01 01:35:55;;;;;;;7.43;3.40;;;12.20;99.90;;;;;;5019065;28;20406;-73
2024/04/01 01:38:40;;;;;;;8.43;3.87;;;12.20;99.90;;;;;;5024222;28;20410;-73
2024/04/01 01:41:27;;;;;;;9.10;3.67;;;12.20;99.90;;;;;;5023239;28;20424;-73
2024/04/01 01:44:11;;;;;;;12.30;4.07;;;12.20;99.90;;;;;;5019118;28;20535;-74
2024/04/01 01:46:57;;;;;;;9.40;3.70;;;12.20;99.90;;;;;;5015561;28;20758;-74
2024/04/01 01:49:41;;;;;;;14.70;4.10;;;12.30;99.90;;;;;;5023451;28;20483;-74
2024/04/01 01:52:27;;;;;;;12.97;3.70;;;12.20;99.90;;;;;;5017234;28;20442;-73
2024/04/01 01:55:12;;;;;;;13.93;4.27;;;12.10;99.90;;;;;;5018862;28;20777;-73
2024/04/01 01:57:59;;;;;;;12.70;3.70;;;12.10;99.90;;;;;;5018880;28;20495;-73
2024/04/01 02:00:43;;;;;;;9.80;3.73;;;12.10;99.90;;;;;;5019561;28;20466;-74
2024/04/01 02:03:29;;;;;;;13.00;4.27;;;12.10;99.90;;;;;;5021044;28;20445;-73
2024/04/01 02:06:15;;;;;;;11.20;3.90;;;12.10;99.90;;;;;;5029862;28;20407;-73
2024/04/01 02:09:00;;;;;;;11.23;4.33;;;12.10;99.90;;;;;;5016713;28;20440;-74
2024/04/01 02:11:45;;;;;;;15.20;4.40;;;12.00;99.90;;;;;;5021205;28;20960;-74
2024/04/01 02:14:32;;;;;;;9.80;4.10;;;12.00;99.90;;;;;;5017799;28;20510;-74
2024/04/01 02:17:17;;;;;;;8.33;3.80;;;12.00;99.90;;;;;;5016328;28;20448;-73
2024/04/01 02:20:11;;;;;;;6.33;4.30;;;11.90;99.90;;;;;;5015466;28;20449;-74
2024/04/01 02:23:02;;;;;;;7.77;4.17;;;11.90;99.90;;;;;;5021331;28;20563;-74
2024/04/01 02:25:47;;;;;;;10.83;4.40;;;11.90;99.90;;;;;;5015864;28;20486;-73
2024/04/01 02:28:33;;;;;;;8.40;4.73;;;11.90;99.90;;;;;;5021370;28;20460;-72
2024/04/01 02:31:19;;;;;;;7.37;4.27;;;11.80;99.90;;;;;;5024792;28;20513;-74
2024/04/01 02:34:05;;;;;;;9.90;4.00;;;11.80;99.90;;;;;;5018851;28;20434;-74
2024/04/01 02:36:50;;;;;;;14.70;4.37;;;11.80;99.90;;;;;;5016657;28;20433;-73
2024/04/01 02:39:35;;;;;;;10.37;4.23;;;11.90;99.90;;;;;;5023079;28;20874;-73
2024/04/01 02:42:20;;;;;;;7.43;4.03;;;11.80;99.90;;;;;;5019470;28;20487;-73
2024/04/01 02:45:06;;;;;;;10.27;3.43;;;11.80;99.90;;;;;;5019015;28;20861;-74
2024/04/01 02:47:52;;;;;;;9.10;3.10;;;11.80;99.90;;;;;;5017670;28;21021;-73
2024/04/01 02:50:38;;;;;;;4.70;2.13;;;11.90;99.90;;;;;;5015294;28;20479;-74
2024/04/01 02:53:22;;;;;;;4.30;2.23;;;11.90;99.90;;;;;;5014959;28;20445;-74
2024/04/01 02:56:08;;;;;;;15.27;2.57;;;11.80;99.90;;;;;;5019762;28;20442;-73
2024/04/01 02:58:53;;;;;;;8.23;2.90;;;11.80;99.90;;;;;;5018188;28;20965;-73
2024/04/01 03:01:40;;;;;;;8.73;2.20;;;11.90;99.90;;;;;;5044121;22;20557;-72
2024/04/01 03:04:26;;;;;;;5.17;2.23;;;11.90;99.90;;;;;;5026770;28;20425;-72
2024/04/01 03:07:12;;;;;;;6.10;2.00;;;11.90;99.90;;;;;;5026463;28;21514;-74
2024/04/01 03:09:56;;;;;;;7.73;1.90;;;11.90;99.90;;;;;;5026518;28;20475;-74
2024/04/01 03:12:43;;;;;;;6.63;1.93;;;12.00;99.90;;;;;;5025127;28;20590;-73
2024/04/01 03:15:28;;;;;;;9.23;1.43;;;12.10;99.90;;;;;;5021463;28;20576;-74
2024/04/01 03:18:13;;;;;;;8.83;2.80;;;12.10;99.90;;;;;;5018472;28;20582;-74
2024/04/01 03:20:59;;;;;;;9.80;1.83;;;12.10;99.90;;;;;;5021931;28;20455;-73
2024/04/01 03:23:45;;;;;;;8.97;1.93;;;12.10;99.90;;;;;;5021726;28;20467;-73
2024/04/01 03:26:29;;;;;;;6.77;1.50;;;12.00;99.90;;;;;;5020792;28;20455;-74
2024/04/01 03:29:15;;;;;;;3.33;1.57;;;12.00;99.90;;;;;;5025007;28;21024;-73
2024/04/01 03:32:00;;;;;;;4.47;1.87;;;12.00;99.90;;;;;;5020298;28;20487;-73
2024/04/01 03:34:47;;;;;;;4.23;1.37;;;12.00;99.90;;;;;;5022228;28;21296;-74
2024/04/01 03:37:34;;;;;;;10.20;2.73;;;11.90;99.90;;;;;;5018614;28;20453;-73
2024/04/01 03:40:20;;;;;;;2.73;1.53;;;11.90;99.90;;;;;;5023854;28;20481;-72
2024/04/01 03:43:05;;;;;;;7.77;1.93;;;11.90;99.90;;;;;;5022427;28;20837;-74
2024/04/01 03:45:58;;;;;;;7.57;2.00;;;11.90;99.90;;;;;;5026743;28;20494;-74
2024/04/01 03:48:43;;;;;;;3.83;1.77;;;11.90;99.90;;;;;;5019521;28;20464;-73
2024/04/01 03:51:29;;;;;;;8.43;1.47;;;11.80;99.90;;;;;;5023280;28;20473;-74
2024/04/01 03:54:15;;;;;;;5.10;1.60;;;11.80;99.90;;;;;;5023680;28;20425;-72
2024/04/01 03:57:00;;;;;;;5.03;2.10;;;11.80;99.90;;;;;;5023521;28;20445;-72
2024/04/01 03:59:45;;;;;;;7.27;1.50;;;11.80;99.90;;;;;;5019818;28;20427;-74
2024/04/01 04:02:31;;;;;;;8.70;1.60;;;11.80;99.90;;;;;;5019454;28;20528;-74
2024/04/01 04:05:15;;;;;;;5.60;2.07;;;11.70;99.90;;;;;;5027895;28;20523;-74
2024/04/01 04:08:01;;;;;;;5.17;1.27;;;11.80;99.90;;;;;;5024934;28;20536;-72
2024/04/01 04:10:48;;;;;;;4.37;1.40;;;11.70;99.90;;;;;;5021407;28;20442;-73
2024/04/01 04:13:33;;;;;;;7.33;2.00;;;11.70;99.90;;;;;;5017485;28;20538;-74
2024/04/01 04:16:19;;;;;;;8.70;1.57;;;11.80;99.90;;;;;;5024220;28;20527;-73
2024/04/01 04:19:04;;;;;;;2.97;1.73;;;11.80;99.90;;;;;;5024784;28;23571;-74
2024/04/01 04:21:50;;;;;;;6.53;1.30;;;11.60;99.90;;;;;;5022599;28;20467;-74
2024/04/01 04:24:36;;;;;;;13.87;1.60;;;11.60;99.90;;;;;;5023091;28;20430;-73
2024/04/01 04:27:23;;;;;;;4.50;1.93;;;11.60;99.90;;;;;;5021783;28;20962;-73
2024/04/01 04:30:12;;;;;;;5.67;2.00;;;11.70;99.90;;;;;;5023164;28;21038;-73
2024/04/01 04:32:57;;;;;;;3.30;1.63;;;11.70;99.90;;;;;;5022867;28;20467;-74
2024/04/01 04:35:43;;;;;;;7.83;1.73;;;11.50;99.90;;;;;;5021318;28;20562;-73
2024/04/01 04:38:28;;;;;;;3.73;1.93;;;11.50;99.90;;;;;;5021569;28;20433;-74
2024/04/01 04:41:14;;;;;;;4.43;2.60;;;11.60;99.90;;;;;;5018974;28;21009;-72
2024/04/01 04:44:00;;;;;;;3.67;1.57;;;11.70;99.90;;;;;;5018930;28;20477;-74
2024/04/01 04:46:46;;;;;;;5.93;2.00;;;11.60;99.90;;;;;;5021906;28;20557;-74
2024/04/01 04:49:34;;;;;;;11.00;2.10;;;11.60;99.90;;;;;;5018333;28;20457;-74
2024/04/01 04:52:19;;;;;;;6.23;2.53;;;11.60;99.90;;;;;;5021543;28;20477;-74
2024/04/01 04:55:05;;;;;;;6.37;1.57;;;11.60;99.90;;;;;;5021036;28;20413;-73
2024/04/01 04:57:50;;;;;;;3.30;1.70;;;11.50;99.90;;;;;;5021815;28;20439;-72
2024/04/01 05:00:36;;;;;;;11.53;1.97;;;11.60;99.90;;;;;;5022315;28;20429;-74
2024/04/01 05:03:22;;;;;;;9.40;1.80;;;11.60;99.90;;;;;;5026220;28;20530;-74
2024/04/01 05:06:08;;;;;;;4.73;1.47;;;11.60;99.90;;;;;;5029833;28;20599;-74
2024/04/01 05:08:53;;;;;;;8.40;2.40;;;11.50;99.90;;;;;;5028420;28;20550;-74
2024/04/01 05:11:39;;;;;;;5.40;3.03;;;11.40;99.90;;;;;;5022635;28;20458;-73
2024/04/01 05:14:24;;;;;;;2.93;2.63;;;11.30;99.90;;;;;;5018168;28;20427;-73
2024/04/01 05:17:11;;;;;;;5.37;3.37;;;11.30;99.90;;;;;;5021466;28;21005;-74
2024/04/01 05:19:56;;;;;;;3.13;2.63;;;11.30;99.90;;;;;;5022703;28;20788;-74
2024/04/01 05:22:41;;;;;;;5.30;3.83;;;11.30;99.90;;;;;;5023202;28;20448;-74
2024/04/01 05:25:26;;;;;;;8.53;3.60;;;11.30;99.90;;;;;;5026753;28;20503;-74
2024/04/01 05:28:12;;;;;;;6.93;4.50;;;11.30;99.90;;;;;;5029295;28;20853;-74
2024/04/01 05:30:57;;;;;;;4.47;4.07;;;11.30;99.90;;;;;;5028438;28;20452;-74
2024/04/01 05:33:44;;;;;;;7.47;4.27;;;11.30;99.90;;;;;;5021492;28;20427;-74
2024/04/01 05:36:31;;;;;;;4.53;4.07;;;11.20;99.90;;;;;;5022800;28;20795;-73
2024/04/01 05:39:17;;;;;;;4.23;3.83;;;11.10;99.90;;;;;;5023922;28;20452;-74
2024/04/01 05:42:02;;;;;;;5.83;4.60;;;11.10;99.90;;;;;;5024750;28;20836;-73
2024/04/01 05:44:48;;;;;;;4.70;3.80;;;11.10;99.90;;;;;;5023245;28;20451;-74
2024/04/01 05:47:33;;;;;;;6.07;4.63;;;11.10;99.90;;;;;;5024022;28;20458;-74
2024/04/01 05:50:20;;;;;;;6.03;4.23;;;11.10;99.90;;;;;;5019653;28;20613;-73
2024/04/01 05:53:05;;;;;;;5.73;4.17;;;11.10;99.90;;;;;;5026091;28;20565;-73
2024/04/01 05:55:50;;;;;;;5.60;3.80;;;11.20;99.90;;;;;;5024095;28;21038;-73
2024/04/01 05:58:35;;;;;;;5.70;4.00;;;11.20;99.90;;;;;;5025712;28;20460;-73
2024/04/01 06:01:21;;;;;;;9.57;3.90;;;11.20;99.90;;;;;;5024252;28;20469;-73
2024/04/01 06:04:05;;;;;;;4.50;3.57;;;11.30;99.90;;;;;;5021503;28;20482;-73
2024/04/01 06:06:53;;;;;;;6.83;4.00;;;11.30;99.90;;;;;;5025466;28;20546;-74
2024/04/01 06:09:37;;;;;;;4.47;3.80;;;11.40;99.90;;;;;;5024633;28;20550;-73
2024/04/01 06:12:23;;;;;;;6.07;3.53;;;11.40;99.90;;;;;;5017349;28;21041;-73
2024/04/01 06:15:07;;;;;;;3.63;2.87;;;11.50;99.90;;;;;;5023988;28;20935;-72
2024/04/01 06:17:53;;;;;;;4.20;2.70;;;11.50;99.90;;;;;;5020437;28;20517;-73
2024/04/01 06:20:39;;;;;;;2.93;2.60;;;11.60;99.90;;;;;;5022552;28;20427;-72
2024/04/01 06:23:27;;;;;;;3.83;2.30;;;11.60;99.90;;;;;;5023179;28;20935;-73
2024/04/01 06:26:13;;;;;;;5.10;3.60;;;11.50;99.90;;;;;;5022857;28;20433;-73
2024/04/01 06:28:57;;;;;;;3.67;3.03;;;11.40;99.90;;;;;;5020862;28;20452;-74
2024/04/01 06:31:43;;;;;;;4.70;3.80;;;11.40;99.90;;;;;;5022700;28;20481;-73
2024/04/01 06:34:28;;;;;;;5.40;4.90;;;11.30;99.90;;;;;;5024619;28;20438;-74
2024/04/01 06:37:13;;;;;;;6.10;5.50;;;11.30;99.90;;;;;;5022223;28;20533;-73
2024/04/01 06:39:59;;;;;;;6.60;5.80;;;11.30;99.90;;;;;;5024215;28;20513;-71
2024/04/01 06:42:45;;;;;;;5.47;4.97;;;11.30;99.90;;;;;;5026661;28;20530;-72
2024/04/01 06:45:30;;;;;;;5.23;4.73;;;11.30;99.90;;;;;;5018538;28;20471;-73
2024/04/01 06:48:15;;;;;;;4.43;4.03;;;11.30;99.90;;;;;;5021972;28;20429;-73
2024/04/01 06:51:01;;;;;;;3.70;3.30;;;11.30;99.90;;;;;;5022512;28;20479;-74
2024/04/01 06:53:46;;;;;;;3.40;2.90;;;11.40;99.90;;;;;;5021733;28;20471;-73
2024/04/01 06:56:33;;;;;;;3.60;2.70;;;11.40;99.90;;;;;;5021801;28;20532;-73
2024/04/01 06:59:17;;;;;;;4.60;2.03;;;11.40;99.90;;;;;;5020637;28;20475;-73
2024/04/01 07:02:03;;;;;;;4.00;2.20;;;11.40;99.90;;;;;;5021702;28;20466;-73
2024/04/01 07:04:49;;;;;;;2.83;2.00;;;11.40;99.90;;;;;;5017475;28;20456;-74
2024/04/01 07:07:35;;;;;;;2.97;1.53;;;11.50;99.90;;;;;;5018282;28;20434;-74
2024/04/01 07:10:20;;;;;;;2.03;1.23;;;11.40;99.90;;;;;;5015725;28;20422;-72
2024/04/01 07:13:06;;;;;;;4.23;1.40;;;11.30;99.90;;;;;;5020157;28;21001;-71
2024/04/01 07:15:53;;;;;;;2.97;1.43;;;11.30;99.90;;;;;;5018612;28;20577;-69
2024/04/01 07:18:38;;;;;;;2.57;1.43;;;11.30;99.90;;;;;;5021053;28;20583;-73
2024/04/01 07:21:26;;;;;;;2.60;1.60;;;11.40;99.90;;;;;;5014111;28;20872;-72
2024/04/01 07:24:14;;;;;;;2.20;1.43;;;11.30;99.90;;;;;;5015099;28;20493;-73
2024/04/01 07:27:00;;;;;;;2.30;1.50;;;11.30;99.90;;;;;;5016794;28;20451;-74
2024/04/01 07:29:46;;;;;;;2.20;1.30;;;11.30;99.90;;;;;;5018477;28;20483;-74
2024/04/01 07:32:31;;;;;;;3.00;1.70;;;11.30;99.90;;;;;;5022566;28;20518;-74
2024/04/01 07:35:16;;;;;;;2.10;1.20;;;11.30;99.90;;;;;;5021589;28;21845;-73
2024/04/01 07:38:02;;;;;;;3.53;1.27;;;11.30;99.90;;;;;;5017133;28;20467;-74
2024/04/01 07:40:46;;;;;;;3.33;1.20;;;11.30;99.90;;;;;;5015832;28;20567;-73
2024/04/01 07:43:32;;;;;;;7.33;1.87;;;11.30;99.90;;;;;;5021859;28;20460;-73
2024/04/01 07:46:19;;;;;;;2.77;1.10;;;11.30;99.90;;;;;;5016962;28;21005;-74
2024/04/01 07:49:05;;;;;;;4.27;1.20;;;11.20;99.90;;;;;;5014243;28;21073;-74
2024/04/01 07:51:51;;;;;;;2.80;1.47;;;11.20;99.90;;;;;;5013517;28;20478;-74
2024/04/01 07:54:36;;;;;;;10.23;4.97;;;11.20;99.90;;;;;;5021030;28;20619;-73
2024/04/01 07:57:23;;;;;;;1.93;1.10;;;11.30;99.90;;;;;;5021082;28;20497;-73
2024/04/01 08:00:10;;;;;;;1.90;1.10;;;11.20;99.90;;;;;;5016445;28;20751;-73
2024/04/01 08:02:55;;;;;;;3.70;1.20;;;11.30;99.90;;;;;;5021362;28;20954;-74
2024/04/01 08:05:41;;;;;;;1.60;1.10;;;11.30;99.90;;;;;;5018844;28;20434;-74
2024/04/01 08:08:26;;;;;;;2.00;1.00;;;11.40;99.90;;;;;;5016928;28;20439;-74
2024/04/01 08:11:11;;;;;;;1.70;1.10;;;11.40;99.90;;;;;;5019435;28;21083;-74
2024/04/01 08:13:57;;;;;;;1.60;1.00;;;11.40;99.90;;;;;;5022369;28;20937;-73
2024/04/01 08:16:43;;;;;;;2.03;1.33;;;11.30;99.90;;;;;;5020505;28;20455;-74
2024/04/01 08:19:30;;;;;;;1.77;1.10;;;11.30;99.90;;;;;;5018463;28;20560;-74
2024/04/01 08:22:15;;;;;;;2.20;1.30;;;11.30;99.90;;;;;;5014072;28;21029;-73
2024/04/01 08:25:00;;;;;;;1.80;1.10;;;11.20;99.90;;;;;;5015716;28;20535;-73
2024/04/01 08:27:45;;;;;;;2.33;1.50;;;11.20;99.90;;;;;;5018483;28;20801;-73
2024/04/01 08:30:30;;;;;;;2.30;1.13;;;11.20;99.90;;;;;;5017649;28;20797;-74
2024/04/01 08:33:17;;;;;;;2.60;1.43;;;11.20;99.90;;;;;;5023313;28;20455;-72
2024/04/01 08:36:04;;;;;;;1.50;0.80;;;11.20;99.90;;;;;;5021223;28;20494;-74
2024/04/01 08:38:50;;;;;;;1.40;0.80;;;11.20;99.90;;;;;;5025426;28;20955;-74
2024/04/01 08:41:39;;;;;;;1.50;0.90;;;11.10;99.90;;;;;;5025203;28;20442;-75
2024/04/01 08:44:27;;;;;;;2.43;0.90;;;11.00;99.90;;;;;;5022617;28;20515;-74
2024/04/01 08:47:14;;;;;;;1.50;0.70;;;11.10;99.90;;;;;;5024039;28;20570;-74
2024/04/01 08:50:04;;;;;;;2.63;1.07;;;11.00;99.90;;;;;;5021285;28;20539;-74
2024/04/01 08:52:54;;;;;;;1.50;0.90;;;11.10;99.90;;;;;;5025015;28;20996;-74
2024/04/01 08:55:41;;;;;;;2.83;1.00;;;11.10;99.90;;;;;;5026634;28;20497;-74
2024/04/01 08:58:26;;;;;;;1.63;0.87;;;11.20;99.90;;;;;;5021334;28;20429;-74
2024/04/01 09:01:12;;;;;;;3.10;1.13;;;11.20;99.90;;;;;;5021767;28;21002;-74
2024/04/01 09:03:56;;;;;;;2.17;1.40;;;11.20;99.90;;;;;;5023434;28;20497;-74
2024/04/01 09:06:41;;;;;;;2.10;1.20;;;11.20;99.90;;;;;;5023245;28;20845;-74
2024/04/01 09:09:28;;;;;;;3.90;1.07;;;11.20;99.90;;;;;;5020800;28;20483;-73
2024/04/01 09:12:15;;;;;;;1.70;1.20;;;11.30;99.90;;;;;;5016741;28;20552;-74
2024/04/01 09:15:00;;;;;;;1.40;0.80;;;11.40;99.90;;;;;;5018849;28;20425;-73
2024/04/01 09:17:46;;;;;;;1.53;0.87;;;11.30;99.90;;;;;;5021824;28;20540;-74
2024/04/01 09:20:31;;;;;;;1.67;0.80;;;11.30;99.90;;;;;;5026395;28;20422;-73
2024/04/01 09:23:16;;;;;;;1.83;0.90;;;11.10;99.90;;;;;;5019205;28;20450;-74
2024/04/01 09:26:03;;;;;;;1.30;0.60;;;11.00;99.90;;;;;;5019101;28;20562;-74
2024/04/01 09:28:50;;;;;;;1.70;0.90;;;11.10;99.90;;;;;;5020592;28;20935;-74
2024/04/01 09:31:36;;;;;;;1.93;0.80;;;11.10;99.90;;;;;;5017981;28;20707;-74
2024/04/01 09:34:21;;;;;;;1.50;0.70;;;11.10;99.90;;;;;;5019787;28;20978;-73
2024/04/01 09:37:07;;;;;;;1.20;0.60;;;11.20;99.90;;;;;;5021822;28;20532;-74
2024/04/01 09:39:52;;;;;;;4.00;0.80;;;11.30;99.90;;;;;;5020404;28;20498;-74
2024/04/01 09:42:39;;;;;;;1.13;0.53;;;11.40;99.90;;;;;;5019796;28;20489;-74
2024/04/01 09:45:24;;;;;;;1.50;0.77;;;11.40;99.90;;;;;;5019998;28;20594;-73
2024/04/01 09:48:10;;;;;;;3.00;0.70;;;11.50;99.90;;;;;;5021281;28;20463;-74
2024/04/01 09:50:56;;;;;;;1.83;0.83;;;11.50;99.90;;;;;;5020229;28;20507;-74
2024/04/01 09:53:41;;;;;;;8.20;1.00;;;11.40;99.90;;;;;;5019151;28;20452;-74
2024/04/01 09:57:11;;;;;;;1.70;0.90;;;11.50;99.90;;;;;;5020330;28;20794;-73
2024/04/01 10:00:19;;;;;;;2.20;1.20;;;11.30;99.90;;;;;;5019839;28;20455;-72
2024/04/01 10:03:47;;;;;;;1.80;1.20;;;11.30;99.90;;;;;;5023769;28;20474;-73
2024/04/01 10:07:20;;;;;;;3.40;1.70;;;11.30;99.90;;;;;;5026043;28;20446;-73
2024/04/01 10:10:23;;;;;;;2.70;1.20;;;11.40;99.90;;;;;;5016992;28;20481;-74
2024/04/01 10:13:44;;;;;;;2.40;1.10;;;11.40;99.90;;;;;;5020012;28;20525;-73
2024/04/01 10:16:56;;;;;;;2.83;1.10;;;11.30;99.90;;;;;;5005810;28;20508;-73
2024/04/01 10:20:20;;;;;;;2.37;1.10;;;11.30;99.90;;;;;;5016445;28;20458;-74
2024/04/01 10:23:51;;;;;;;1.60;0.77;;;11.20;99.90;;;;;;5003687;28;21036;-71
2024/04/01 10:27:29;;;;;;;4.83;0.80;;;11.20;99.90;;;;;;5015555;28;20454;-72
2024/04/01 10:30:43;;;;;;;3.00;0.90;;;11.10;99.90;;;;;;5018815;28;20505;-74
2024/04/01 10:33:53;;;;;;;1.30;0.60;;;11.10;99.90;;;;;;5023155;28;20510;-73
2024/04/01 10:37:02;;;;;;;1.80;0.70;;;11.20;99.90;;;;;;5022250;28;20523;-74
2024/04/01 10:40:02;;;;;;;2.13;1.00;;;11.20;99.90;;;;;;5018370;28;20520;-74
2024/04/01 10:43:22;;;;;;;3.10;0.90;;;11.30;99.90;;;;;;5017051;28;20482;-73
2024/04/01 10:46:40;;;;;;;1.57;0.70;;;11.40;99.90;;;;;;5009022;28;20492;-72
2024/04/01 10:50:00;;;;;;;4.90;0.90;;;11.40;99.90;;;;;;5011812;28;20499;-73
2024/04/01 10:53:19;;;;;;;1.97;0.93;;;11.50;99.90;;;;;;5023508;28;20860;-73
2024/04/01 10:56:42;;;;;;;1.30;0.60;;;11.50;99.90;;;;;;5019639;28;20438;-74
2024/04/01 10:59:57;;;;;;;1.70;0.90;;;11.30;99.90;;;;;;5018908;28;20425;-71
2024/04/01 11:03:28;;;;;;;3.53;0.70;;;11.30;99.90;;;;;;4998936;28;20702;-73
2024/04/01 11:06:32;;;;;;;2.33;0.97;;;11.40;99.90;;;;;;5021425;28;20548;-71
2024/04/01 11:09:33;;;;;;;6.20;0.83;;;11.30;99.90;;;;;;5017982;28;20960;-73
2024/04/01 11:12:27;;;;;;;1.97;1.00;;;11.20;99.90;;;;;;5021211;28;20560;-72
2024/04/01 11:15:14;;;;;;;1.60;1.10;;;11.20;99.90;;;;;;5018529;28;20506;-72
2024/04/01 11:18:34;;;;;;;1.60;1.00;;;11.20;99.90;;;;;;5023020;28;20951;-73
2024/04/01 11:21:31;;;;;;;1.80;0.90;;;11.20;99.90;;;;;;5018438;28;20582;-73
2024/04/01 11:24:30;;;;;;;2.73;1.17;;;11.30;99.90;;;;;;5021851;28;20479;-73
2024/04/01 11:27:31;;;;;;;1.93;1.10;;;11.20;99.90;;;;;;5025994;28;20798;-72
2024/04/01 11:30:24;;;;;;;1.60;1.00;;;11.30;99.90;;;;;;5018600;28;20431;-73
2024/04/01 11:33:10;;;;;;;6.27;1.23;;;11.30;99.90;;;;;;5025671;28;20618;-71
2024/04/01 11:35:58;;;;;;;3.93;1.27;;;11.30;99.90;;;;;;5023060;28;20495;-73
2024/04/01 11:38:57;;;;;;;3.30;1.00;;;11.20;99.90;;;;;;5023990;28;20435;-73
2024/04/01 11:41:46;;;;;;;1.70;1.03;;;11.20;99.90;;;;;;5025561;28;20836;-73
2024/04/01 11:44:32;;;;;;;2.60;1.30;;;11.20;99.90;;;;;;5023432;28;20442;-73
2024/04/01 11:47:19;;;;;;;2.50;1.10;;;11.20;99.90;;;;;;5026171;28;20431;-72
2024/04/01 11:50:13;;;;;;;2.60;1.70;;;11.00;99.90;;;;;;5024777;28;20414;-73
2024/04/01 11:52:59;;;;;;;1.70;1.13;;;11.10;99.90;;;;;;5024503;28;20513;-73
2024/04/01 11:55:54;;;;;;;2.87;1.43;;;11.00;99.90;;;;;;5024152;28;20450;-73
2024/04/01 11:58:48;;;;;;;2.63;1.83;;;11.00;99.90;;;;;;5023460;28;21008;-73
2024/04/01 12:01:34;;;;;;;4.73;2.40;;;11.10;99.90;;;;;;5024640;28;20461;-70
2024/04/01 12:04:21;;;;;;;3.70;1.30;;;11.00;99.90;;;;;;5023727;28;20442;-72
2024/04/01 12:07:07;;;;;;;4.10;1.53;;;11.00;99.90;;;;;;5021022;28;20447;-73
2024/04/01 12:09:54;;;;;;;2.03;1.10;;;10.90;99.90;;;;;;5021597;28;20443;-72
2024/04/01 12:12:41;;;;;;;1.50;0.90;;;11.00;99.90;;;;;;5024248;28;20483;-73
2024/04/01 12:15:27;;;;;;;2.93;1.10;;;11.20;99.90;;;;;;5019110;28;20454;-73
2024/04/01 12:18:15;;;;;;;1.30;0.70;;;11.20;99.90;;;;;;5022304;28;20453;-73
2024/04/01 12:21:01;;;;;;;4.80;2.00;;;11.20;99.90;;;;;;5020660;28;20423;-73
2024/04/01 12:23:48;;;;;;;2.50;1.27;;;11.20;99.90;;;;;;5023271;28;20438;-73
2024/04/01 12:26:38;;;;;;;3.63;1.40;;;11.20;99.90;;;;;;5022458;28;20818;-72
2024/04/01 12:29:24;;;;;;;2.03;0.90;;;11.10;99.90;;;;;;5022620;28;20561;-70
2024/04/01 12:32:11;;;;;;;3.90;1.70;;;11.10;99.90;;;;;;5025669;28;20557;-72
2024/04/01 12:34:56;;;;;;;1.80;0.90;;;11.10;99.90;;;;;;5026567;28;20482;-73
2024/04/01 12:37:42;;;;;;;1.70;0.80;;;11.10;99.90;;;;;;5022739;28;20497;-72
2024/04/01 12:40:26;;;;;;;1.87;0.80;;;11.10;99.90;;;;;;5021377;28;20819;-72
2024/04/01 12:43:14;;;;;;;1.53;0.93;;;11.10;99.90;;;;;;5012005;28;20446;-73
2024/04/01 12:46:02;;;;;;;1.63;0.73;;;11.20;99.90;;;;;;5020721;28;20457;-71
2024/04/01 12:48:47;;;;;;;1.40;0.83;;;11.10;99.90;;;;;;5022058;28;20471;-73
2024/04/01 12:51:33;;;;;;;1.30;0.80;;;11.10;99.90;;;;;;5018386;28;20568;-73
2024/04/01 12:54:54;;;;;;;1.50;0.80;;;11.00;99.90;;;;;;5015325;28;20510;-73
2024/04/01 12:57:53;;;;;;;1.27;0.60;;;11.00;99.90;;;;;;5019277;28;21022;-71
2024/04/01 13:00:40;;;;;;;7.90;1.90;;;11.10;99.90;;;;;;5019297;28;20450;-73
2024/04/01 13:03:47;;;;;;;1.50;0.83;;;11.10;99.90;;;;;;5020738;28;20480;-72
2024/04/01 13:06:51;;;;;;;1.73;0.80;;;11.10;99.90;;;;;;5017561;28;20459;-73
2024/04/01 13:09:53;;;;;;;5.43;0.60;;;11.10;99.90;;;;;;5020945;28;20458;-73
2024/04/01 13:12:51;;;;;;;2.67;0.93;;;11.10;99.90;;;;;;5024877;28;20466;-74
2024/04/01 13:15:42;;;;;;;1.40;0.80;;;11.10;99.90;;;;;;5020080;28;20463;-73
2024/04/01 13:18:37;;;;;;;1.77;0.80;;;11.20;99.90;;;;;;5021370;28;20562;-72
2024/04/01 13:21:29;;;;;;;1.40;0.70;;;11.20;99.90;;;;;;5023166;28;20458;-73
2024/04/01 13:24:23;;;;;;;4.80;0.90;;;11.10;99.90;;;;;;5023200;28;20470;-73
2024/04/01 13:27:19;;;;;;;1.60;0.73;;;11.10;99.90;;;;;;5029898;28;20443;-73
2024/04/01 13:30:12;;;;;;;1.93;1.07;;;11.00;99.90;;;;;;5027498;28;20524;-73
2024/04/01 13:32:59;;;;;;;1.80;0.93;;;11.00;99.90;;;;;;5027582;28;20469;-74
2024/04/01 13:36:09;;;;;;;1.60;0.77;;;11.00;99.90;;;;;;5022904;28;20471;-73
2024/04/01 13:39:05;;;;;;;2.80;0.90;;;11.10;99.90;;;;;;5026491;28;20959;-74
2024/04/01 13:42:01;;;;;;;2.33;0.93;;;11.10;99.90;;;;;;5025752;28;20471;-74
2024/04/01 13:44:55;;;;;;;2.07;0.73;;;11.10;99.90;;;;;;5023128;28;20909;-72
2024/04/01 13:47:53;;;;;;;2.07;0.80;;;11.10;99.90;;;;;;5024885;28;20452;-74
2024/04/01 13:50:51;;;;;;;1.40;0.60;;;11.10;99.90;;;;;;5025105;28;20821;-73
2024/04/01 13:53:43;;;;;;;10.57;0.80;;;11.10;99.90;;;;;;5024555;28;21028;-74
2024/04/01 13:56:57;;;;;;;1.90;0.83;;;11.10;99.90;;;;;;5024479;28;20990;-74
2024/04/01 13:59:45;;;;;;;1.30;0.70;;;11.10;99.90;;;;;;5024801;28;20454;-74
2024/04/01 14:02:41;;;;;;;1.40;0.70;;;11.10;99.90;;;;;;5021464;28;20476;-73
2024/04/01 14:05:42;;;;;;;1.30;0.60;;;11.20;99.90;;;;;;5023201;28;20490;-72
2024/04/01 14:08:37;;;;;;;1.50;0.60;;;11.20;99.90;;;;;;5028039;28;20955;-74
2024/04/01 14:11:35;;;;;;;1.47;0.57;;;11.10;99.90;;;;;;5024712;28;20467;-72
2024/04/01 14:14:24;;;;;;;1.20;0.53;;;11.10;99.90;;;;;;5023314;28;20435;-74
2024/04/01 14:17:16;;;;;;;1.30;0.60;;;11.20;99.90;;;;;;5022730;28;20427;-73
2024/04/01 14:20:07;;;;;;;1.40;0.70;;;11.20;99.90;;;;;;5022139;28;20954;-72
2024/04/01 14:22:53;;;;;;;1.50;0.80;;;11.10;99.90;;;;;;5023200;28;20454;-73
2024/04/01 14:25:45;;;;;;;1.80;0.67;;;11.10;99.90;;;;;;5028139;28;20522;-73
2024/04/01 14:28:32;;;;;;;1.77;0.80;;;11.20;99.90;;;;;;5026034;28;20435;-74
2024/04/01 14:31:18;;;;;;;1.30;0.70;;;11.20;99.90;;;;;;5020825;28;20461;-74
2024/04/01 14:34:04;;;;;;;1.33;0.53;;;11.20;99.90;;;;;;5019203;28;20464;-74
2024/04/01 14:36:49;;;;;;;3.00;0.90;;;11.20;99.90;;;;;;5025092;28;20526;-74
2024/04/01 14:39:34;;;;;;;1.63;0.73;;;11.20;99.90;;;;;;5021432;28;20617;-73
2024/04/01 14:42:20;;;;;;;1.70;0.90;;;11.10;99.90;;;;;;5024047;28;20498;-72